sensor_id;sensor_type;location;lat;lon;timestamp;pressure;altitude;pressure_sealevel;temperature;humidity
57094;BME280;42970;50.996;3.706;2023-05-29T00:01:53;47175.91;;;-146.65;72.31
57094;BME280;42970;50.996;3.706;2023-05-29T00:04:19;47177.91;;;-146.65;72.69
57094;BME280;42970;50.996;3.706;2023-05-29T00:06:47;47179.91;;;-146.65;72.48
57094;BME280;42970;50.996;3.706;2023-05-29T00:09:12;47177.91;;;-146.65;72.88
57094;BME280;42970;50.996;3.706;2023-05-29T00:11:37;47179.91;;;-146.65;72.72
57094;BME280;42970;50.996;3.706;2023-05-29T00:14:03;47175.91;;;-146.65;73.48
57094;BME280;42970;50.996;3.706;2023-05-29T00:16:28;47177.91;;;-146.65;73.51
57094;BME280;42970;50.996;3.706;2023-05-29T00:18:55;47175.91;;;-146.65;73.43
57094;BME280;42970;50.996;3.706;2023-05-29T00:21:20;47177.91;;;-146.65;74.57
57094;BME280;42970;50.996;3.706;2023-05-29T00:23:47;47177.91;;;-146.65;74.40
57094;BME280;42970;50.996;3.706;2023-05-29T00:26:12;47175.91;;;-146.65;74.37
57094;BME280;42970;50.996;3.706;2023-05-29T00:28:38;47177.91;;;-146.65;74.37
57094;BME280;42970;50.996;3.706;2023-05-29T00:31:04;47181.91;;;-146.65;73.58
57094;BME280;42970;50.996;3.706;2023-05-29T00:33:29;47175.91;;;-146.65;73.87
57094;BME280;42970;50.996;3.706;2023-05-29T00:35:55;47173.91;;;-146.65;73.36
57094;BME280;42970;50.996;3.706;2023-05-29T00:38:20;47175.91;;;-146.65;73.29
57094;BME280;42970;50.996;3.706;2023-05-29T00:40:45;47177.91;;;-146.65;73.30
57094;BME280;42970;50.996;3.706;2023-05-29T00:43:11;47175.91;;;-146.65;72.66
57094;BME280;42970;50.996;3.706;2023-05-29T00:45:36;47177.91;;;-146.65;73.52
57094;BME280;42970;50.996;3.706;2023-05-29T00:48:05;47177.91;;;-146.65;73.42
57094;BME280;42970;50.996;3.706;2023-05-29T00:50:32;47179.91;;;-146.65;73.10
57094;BME280;42970;50.996;3.706;2023-05-29T00:53:01;47181.91;;;-146.65;73.74
57094;BME280;42970;50.996;3.706;2023-05-29T00:55:28;47177.91;;;-146.65;74.10
57094;BME280;42970;50.996;3.706;2023-05-29T00:57:55;47179.91;;;-146.65;74.33
57094;BME280;42970;50.996;3.706;2023-05-29T01:00:21;47173.91;;;-146.65;75.24
57094;BME280;42970;50.996;3.706;2023-05-29T01:02:46;47179.91;;;-146.65;74.10
57094;BME280;42970;50.996;3.706;2023-05-29T01:05:13;47175.91;;;-146.65;73.77
57094;BME280;42970;50.996;3.706;2023-05-29T01:07:41;47175.91;;;-146.65;73.53
57094;BME280;42970;50.996;3.706;2023-05-29T01:10:07;47175.91;;;-146.65;73.97
57094;BME280;42970;50.996;3.706;2023-05-29T01:12:38;47177.91;;;-146.65;74.45
57094;BME280;42970;50.996;3.706;2023-05-29T01:15:21;47177.91;;;-146.65;73.49
57094;BME280;42970;50.996;3.706;2023-05-29T01:28:47;47173.91;;;-146.65;70.49
57094;BME280;42970;50.996;3.706;2023-05-29T01:31:14;47177.91;;;-146.65;69.85
57094;BME280;42970;50.996;3.706;2023-05-29T01:33:42;47177.91;;;-146.65;69.21
57094;BME280;42970;50.996;3.706;2023-05-29T01:36:08;47177.91;;;-146.65;68.58
57094;BME280;42970;50.996;3.706;2023-05-29T01:38:34;47175.91;;;-146.65;68.05
57094;BME280;42970;50.996;3.706;2023-05-29T01:41:01;47175.91;;;-146.65;68.36
57094;BME280;42970;50.996;3.706;2023-05-29T01:43:26;47177.91;;;-146.65;68.62
57094;BME280;42970;50.996;3.706;2023-05-29T01:45:53;47175.91;;;-146.65;67.55
57094;BME280;42970;50.996;3.706;2023-05-29T01:48:18;47173.91;;;-146.65;67.39
57094;BME280;42970;50.996;3.706;2023-05-29T01:50:45;47177.91;;;-146.65;66.61
57094;BME280;42970;50.996;3.706;2023-05-29T01:53:11;47181.91;;;-146.65;66.50
57094;BME280;42970;50.996;3.706;2023-05-29T01:55:36;47177.91;;;-146.65;67.13
57094;BME280;42970;50.996;3.706;2023-05-29T01:58:02;47173.91;;;-146.65;66.71
57094;BME280;42970;50.996;3.706;2023-05-29T02:00:28;47175.91;;;-146.65;67.16
57094;BME280;42970;50.996;3.706;2023-05-29T02:02:54;47173.91;;;-146.65;66.94
57094;BME280;42970;50.996;3.706;2023-05-29T02:05:20;47177.91;;;-146.65;66.79
57094;BME280;42970;50.996;3.706;2023-05-29T02:07:46;47177.91;;;-146.65;67.05
57094;BME280;42970;50.996;3.706;2023-05-29T02:10:12;47171.91;;;-146.65;66.23
57094;BME280;42970;50.996;3.706;2023-05-29T02:12:37;47173.91;;;-146.65;67.46
57094;BME280;42970;50.996;3.706;2023-05-29T02:15:03;47177.91;;;-146.65;66.52
57094;BME280;42970;50.996;3.706;2023-05-29T02:17:28;47177.91;;;-146.65;65.94
57094;BME280;42970;50.996;3.706;2023-05-29T02:19:54;47177.91;;;-146.65;65.68
57094;BME280;42970;50.996;3.706;2023-05-29T02:22:19;47177.91;;;-146.65;65.36
57094;BME280;42970;50.996;3.706;2023-05-29T02:24:44;47181.91;;;-146.65;65.62
57094;BME280;42970;50.996;3.706;2023-05-29T02:27:10;47177.91;;;-146.65;65.41
57094;BME280;42970;50.996;3.706;2023-05-29T02:29:35;47175.91;;;-146.65;64.91
57094;BME280;42970;50.996;3.706;2023-05-29T02:32:00;47181.91;;;-146.65;64.45
57094;BME280;42970;50.996;3.706;2023-05-29T02:34:26;47175.91;;;-146.65;64.89
57094;BME280;42970;50.996;3.706;2023-05-29T02:36:51;47171.91;;;-146.65;65.47
57094;BME280;42970;50.996;3.706;2023-05-29T02:39:18;47177.91;;;-146.65;64.11
57094;BME280;42970;50.996;3.706;2023-05-29T02:41:43;47173.91;;;-146.65;63.56
57094;BME280;42970;50.996;3.706;2023-05-29T02:44:09;47175.91;;;-146.65;63.36
57094;BME280;42970;50.996;3.706;2023-05-29T02:46:34;47177.91;;;-146.65;63.48
57094;BME280;42970;50.996;3.706;2023-05-29T02:48:59;47175.91;;;-146.65;63.19
57094;BME280;42970;50.996;3.706;2023-05-29T02:51:25;47177.91;;;-146.65;64.43
57094;BME280;42970;50.996;3.706;2023-05-29T02:53:50;47177.91;;;-146.65;63.29
57094;BME280;42970;50.996;3.706;2023-05-29T02:56:15;47177.91;;;-146.65;63.77
57094;BME280;42970;50.996;3.706;2023-05-29T02:58:41;47177.91;;;-146.65;63.18
57094;BME280;42970;50.996;3.706;2023-05-29T03:01:06;47179.91;;;-146.65;62.89
57094;BME280;42970;50.996;3.706;2023-05-29T03:03:32;47179.91;;;-146.65;62.69
57094;BME280;42970;50.996;3.706;2023-05-29T03:05:57;47177.91;;;-146.65;62.96
57094;BME280;42970;50.996;3.706;2023-05-29T03:08:22;47171.91;;;-146.65;62.50
57094;BME280;42970;50.996;3.706;2023-05-29T03:10:49;47171.91;;;-146.65;62.45
57094;BME280;42970;50.996;3.706;2023-05-29T03:13:14;47171.91;;;-146.65;62.42
57094;BME280;42970;50.996;3.706;2023-05-29T03:15:39;47175.91;;;-146.65;62.26
57094;BME280;42970;50.996;3.706;2023-05-29T03:18:04;47175.91;;;-146.65;62.10
57094;BME280;42970;50.996;3.706;2023-05-29T03:20:30;47177.91;;;-146.65;62.17
57094;BME280;42970;50.996;3.706;2023-05-29T03:22:55;47177.91;;;-146.65;61.96
57094;BME280;42970;50.996;3.706;2023-05-29T03:25:20;47177.91;;;-146.65;61.52
57094;BME280;42970;50.996;3.706;2023-05-29T03:27:46;47179.91;;;-146.65;61.42
57094;BME280;42970;50.996;3.706;2023-05-29T03:30:11;47181.91;;;-146.65;61.81
57094;BME280;42970;50.996;3.706;2023-05-29T03:32:36;47179.91;;;-146.65;61.86
57094;BME280;42970;50.996;3.706;2023-05-29T03:35:02;47177.91;;;-146.65;61.94
57094;BME280;42970;50.996;3.706;2023-05-29T03:37:28;47177.91;;;-146.65;62.40
57094;BME280;42970;50.996;3.706;2023-05-29T03:39:54;47173.91;;;-146.65;62.17
57094;BME280;42970;50.996;3.706;2023-05-29T03:42:20;47175.91;;;-146.65;62.81
57094;BME280;42970;50.996;3.706;2023-05-29T03:44:45;47177.91;;;-146.65;62.71
57094;BME280;42970;50.996;3.706;2023-05-29T03:47:11;47177.91;;;-146.65;62.97
57094;BME280;42970;50.996;3.706;2023-05-29T03:49:36;47175.91;;;-146.65;63.80
57094;BME280;42970;50.996;3.706;2023-05-29T03:52:01;47177.91;;;-146.65;63.23
57094;BME280;42970;50.996;3.706;2023-05-29T03:54:27;47175.91;;;-146.65;63.51
57094;BME280;42970;50.996;3.706;2023-05-29T03:56:52;47179.91;;;-146.65;65.21
57094;BME280;42970;50.996;3.706;2023-05-29T03:59:17;47177.91;;;-146.65;65.12
57094;BME280;42970;50.996;3.706;2023-05-29T04:01:42;47175.91;;;-146.65;64.70
57094;BME280;42970;50.996;3.706;2023-05-29T04:04:08;47177.91;;;-146.65;64.52
57094;BME280;42970;50.996;3.706;2023-05-29T04:06:33;47175.91;;;-146.65;64.91
57094;BME280;42970;50.996;3.706;2023-05-29T04:08:58;47179.91;;;-146.65;65.64
57094;BME280;42970;50.996;3.706;2023-05-29T04:11:24;47177.91;;;-146.65;65.82
57094;BME280;42970;50.996;3.706;2023-05-29T04:13:49;47175.91;;;-146.65;66.48
57094;BME280;42970;50.996;3.706;2023-05-29T04:16:15;47177.91;;;-146.65;66.39
57094;BME280;42970;50.996;3.706;2023-05-29T04:18:40;47177.91;;;-146.65;65.71
57094;BME280;42970;50.996;3.706;2023-05-29T04:21:06;47177.91;;;-146.65;66.12
57094;BME280;42970;50.996;3.706;2023-05-29T04:23:31;47173.91;;;-146.65;66.14
57094;BME280;42970;50.996;3.706;2023-05-29T04:25:56;47175.91;;;-146.65;65.97
57094;BME280;42970;50.996;3.706;2023-05-29T04:28:22;47177.91;;;-146.65;66.56
57094;BME280;42970;50.996;3.706;2023-05-29T04:30:48;47177.91;;;-146.65;66.56
57094;BME280;42970;50.996;3.706;2023-05-29T04:33:14;47177.91;;;-146.65;66.66
57094;BME280;42970;50.996;3.706;2023-05-29T04:35:40;47175.91;;;-146.65;66.35
57094;BME280;42970;50.996;3.706;2023-05-29T04:38:08;47173.91;;;-146.65;65.89
57094;BME280;42970;50.996;3.706;2023-05-29T04:40:33;47173.91;;;-146.65;66.80
57094;BME280;42970;50.996;3.706;2023-05-29T04:42:58;47177.91;;;-146.65;65.48
57094;BME280;42970;50.996;3.706;2023-05-29T04:45:25;47177.91;;;-146.65;66.37
57094;BME280;42970;50.996;3.706;2023-05-29T04:47:50;47179.91;;;-146.65;66.33
57094;BME280;42970;50.996;3.706;2023-05-29T04:50:17;47177.91;;;-146.65;65.95
57094;BME280;42970;50.996;3.706;2023-05-29T04:52:43;47173.91;;;-146.65;66.17
57094;BME280;42970;50.996;3.706;2023-05-29T04:55:09;47173.91;;;-146.65;65.54
57094;BME280;42970;50.996;3.706;2023-05-29T04:57:35;47175.91;;;-146.65;65.65
57094;BME280;42970;50.996;3.706;2023-05-29T05:00:01;47175.91;;;-146.65;65.43
57094;BME280;42970;50.996;3.706;2023-05-29T05:02:30;47175.91;;;-146.65;65.45
57094;BME280;42970;50.996;3.706;2023-05-29T05:04:55;47173.91;;;-146.65;65.27
57094;BME280;42970;50.996;3.706;2023-05-29T05:07:20;47177.91;;;-146.65;64.77
57094;BME280;42970;50.996;3.706;2023-05-29T05:09:46;47177.91;;;-146.65;64.07
57094;BME280;42970;50.996;3.706;2023-05-29T05:12:11;47173.91;;;-146.65;64.09
57094;BME280;42970;50.996;3.706;2023-05-29T05:14:36;47179.91;;;-146.65;64.47
57094;BME280;42970;50.996;3.706;2023-05-29T05:17:02;47171.91;;;-146.65;65.39
57094;BME280;42970;50.996;3.706;2023-05-29T05:19:27;47175.91;;;-146.65;64.70
57094;BME280;42970;50.996;3.706;2023-05-29T05:21:53;47175.91;;;-146.65;66.01
57094;BME280;42970;50.996;3.706;2023-05-29T05:24:18;47173.91;;;-146.65;65.39
57094;BME280;42970;50.996;3.706;2023-05-29T05:26:45;47175.91;;;-146.65;65.21
57094;BME280;42970;50.996;3.706;2023-05-29T05:29:12;47175.91;;;-146.65;66.06
57094;BME280;42970;50.996;3.706;2023-05-29T05:31:39;47173.91;;;-146.65;65.37
57094;BME280;42970;50.996;3.706;2023-05-29T05:34:04;47171.91;;;-146.65;64.74
57094;BME280;42970;50.996;3.706;2023-05-29T05:36:30;47175.91;;;-146.65;65.19
57094;BME280;42970;50.996;3.706;2023-05-29T05:38:56;47175.91;;;-146.65;64.40
57094;BME280;42970;50.996;3.706;2023-05-29T05:41:21;47175.91;;;-146.65;64.61
57094;BME280;42970;50.996;3.706;2023-05-29T05:43:46;47175.91;;;-146.65;64.00
57094;BME280;42970;50.996;3.706;2023-05-29T05:46:12;47177.91;;;-146.65;62.85
57094;BME280;42970;50.996;3.706;2023-05-29T05:48:39;47173.91;;;-146.65;63.38
57094;BME280;42970;50.996;3.706;2023-05-29T05:51:04;47173.91;;;-146.65;62.43
57094;BME280;42970;50.996;3.706;2023-05-29T05:53:30;47171.91;;;-146.65;62.64
57094;BME280;42970;50.996;3.706;2023-05-29T05:55:55;47177.91;;;-146.65;62.14
57094;BME280;42970;50.996;3.706;2023-05-29T05:58:20;47177.91;;;-146.65;62.36
57094;BME280;42970;50.996;3.706;2023-05-29T06:00:46;47177.91;;;-146.65;60.85
57094;BME280;42970;50.996;3.706;2023-05-29T06:03:11;47175.91;;;-146.65;60.87
57094;BME280;42970;50.996;3.706;2023-05-29T06:05:36;47173.91;;;-146.65;61.55
57094;BME280;42970;50.996;3.706;2023-05-29T06:08:03;47181.91;;;-146.65;61.13
57094;BME280;42970;50.996;3.706;2023-05-29T06:10:28;47177.91;;;-146.65;60.25
57094;BME280;42970;50.996;3.706;2023-05-29T06:12:53;47173.91;;;-146.65;58.81
57094;BME280;42970;50.996;3.706;2023-05-29T06:15:19;47173.91;;;-146.65;58.58
57094;BME280;42970;50.996;3.706;2023-05-29T06:17:44;47177.91;;;-146.65;59.03
57094;BME280;42970;50.996;3.706;2023-05-29T06:20:10;47177.91;;;-146.65;60.02
57094;BME280;42970;50.996;3.706;2023-05-29T06:22:36;47173.91;;;-146.65;57.97
57094;BME280;42970;50.996;3.706;2023-05-29T06:25:01;47175.91;;;-146.65;57.11
57094;BME280;42970;50.996;3.706;2023-05-29T06:27:27;47179.91;;;-146.65;57.43
57094;BME280;42970;50.996;3.706;2023-05-29T06:29:52;47173.91;;;-146.65;57.69
57094;BME280;42970;50.996;3.706;2023-05-29T06:32:17;47177.91;;;-146.65;59.29
57094;BME280;42970;50.996;3.706;2023-05-29T06:34:43;47177.91;;;-146.65;57.36
57094;BME280;42970;50.996;3.706;2023-05-29T06:37:08;47173.91;;;-146.65;55.78
57094;BME280;42970;50.996;3.706;2023-05-29T06:39:34;47175.91;;;-146.65;57.03
57094;BME280;42970;50.996;3.706;2023-05-29T06:41:59;47177.91;;;-146.65;57.66
57094;BME280;42970;50.996;3.706;2023-05-29T06:44:26;47177.91;;;-146.65;57.47
57094;BME280;42970;50.996;3.706;2023-05-29T06:46:51;47175.91;;;-146.65;56.49
57094;BME280;42970;50.996;3.706;2023-05-29T06:49:16;47177.91;;;-146.65;55.23
57094;BME280;42970;50.996;3.706;2023-05-29T06:51:42;47179.91;;;-146.65;55.32
57094;BME280;42970;50.996;3.706;2023-05-29T06:54:08;47175.91;;;-146.65;54.74
57094;BME280;42970;50.996;3.706;2023-05-29T06:56:33;47177.91;;;-146.65;54.35
57094;BME280;42970;50.996;3.706;2023-05-29T06:58:58;47175.91;;;-146.65;55.00
57094;BME280;42970;50.996;3.706;2023-05-29T07:01:23;47177.91;;;-146.65;55.07
57094;BME280;42970;50.996;3.706;2023-05-29T07:03:52;47181.91;;;-146.65;54.91
57094;BME280;42970;50.996;3.706;2023-05-29T07:06:18;47179.91;;;-146.65;53.75
57094;BME280;42970;50.996;3.706;2023-05-29T07:08:43;47175.91;;;-146.65;54.17
57094;BME280;42970;50.996;3.706;2023-05-29T07:11:08;47177.91;;;-146.65;53.68
57094;BME280;42970;50.996;3.706;2023-05-29T07:13:34;47177.91;;;-146.65;53.16
57094;BME280;42970;50.996;3.706;2023-05-29T07:16:00;47179.91;;;-146.65;54.07
57094;BME280;42970;50.996;3.706;2023-05-29T07:18:31;47175.91;;;-146.65;54.27
57094;BME280;42970;50.996;3.706;2023-05-29T07:20:56;47175.91;;;-146.65;53.09
57094;BME280;42970;50.996;3.706;2023-05-29T07:23:22;47175.91;;;-146.65;53.02
57094;BME280;42970;50.996;3.706;2023-05-29T07:25:47;47175.91;;;-146.65;51.38
57094;BME280;42970;50.996;3.706;2023-05-29T07:28:12;47175.91;;;-146.65;51.38
57094;BME280;42970;50.996;3.706;2023-05-29T07:30:38;47177.91;;;-146.65;52.79
57094;BME280;42970;50.996;3.706;2023-05-29T07:33:03;47175.91;;;-146.65;51.76
57094;BME280;42970;50.996;3.706;2023-05-29T07:35:28;47177.91;;;-146.65;50.98
57094;BME280;42970;50.996;3.706;2023-05-29T07:37:53;47175.91;;;-146.65;50.89
57094;BME280;42970;50.996;3.706;2023-05-29T07:40:19;47181.91;;;-146.65;50.77
57094;BME280;42970;50.996;3.706;2023-05-29T07:42:44;47177.91;;;-146.65;51.56
57094;BME280;42970;50.996;3.706;2023-05-29T07:45:10;47177.91;;;-146.65;51.23
57094;BME280;42970;50.996;3.706;2023-05-29T07:47:36;47175.91;;;-146.65;49.57
57094;BME280;42970;50.996;3.706;2023-05-29T07:50:01;47175.91;;;-146.65;49.77
57094;BME280;42970;50.996;3.706;2023-05-29T07:52:26;47173.91;;;-146.65;51.24
57094;BME280;42970;50.996;3.706;2023-05-29T07:54:52;47177.91;;;-146.65;48.88
57094;BME280;42970;50.996;3.706;2023-05-29T07:57:17;47183.91;;;-146.65;47.73
57094;BME280;42970;50.996;3.706;2023-05-29T07:59:43;47177.91;;;-146.65;47.56
57094;BME280;42970;50.996;3.706;2023-05-29T08:02:08;47177.91;;;-146.65;49.32
57094;BME280;42970;50.996;3.706;2023-05-29T08:04:34;47177.91;;;-146.65;47.85
57094;BME280;42970;50.996;3.706;2023-05-29T08:07:02;47181.91;;;-146.65;49.89
57094;BME280;42970;50.996;3.706;2023-05-29T08:09:31;47177.91;;;-146.65;47.76
57094;BME280;42970;50.996;3.706;2023-05-29T08:11:56;47173.91;;;-146.65;47.96
57094;BME280;42970;50.996;3.706;2023-05-29T08:14:21;47177.91;;;-146.65;47.51
57094;BME280;42970;50.996;3.706;2023-05-29T08:16:47;47173.91;;;-146.65;46.76
57094;BME280;42970;50.996;3.706;2023-05-29T08:19:12;47185.91;;;-146.65;46.03
57094;BME280;42970;50.996;3.706;2023-05-29T08:21:37;47181.91;;;-146.65;45.78
57094;BME280;42970;50.996;3.706;2023-05-29T08:24:03;47177.91;;;-146.65;46.62
57094;BME280;42970;50.996;3.706;2023-05-29T08:26:30;47181.91;;;-146.65;45.01
57094;BME280;42970;50.996;3.706;2023-05-29T08:28:55;47181.91;;;-146.65;44.12
57094;BME280;42970;50.996;3.706;2023-05-29T08:31:21;47179.91;;;-146.65;43.93
57094;BME280;42970;50.996;3.706;2023-05-29T08:33:49;47173.91;;;-146.65;44.03
57094;BME280;42970;50.996;3.706;2023-05-29T08:36:14;47175.91;;;-146.65;43.80
57094;BME280;42970;50.996;3.706;2023-05-29T08:38:39;47177.91;;;-146.65;44.24
57094;BME280;42970;50.996;3.706;2023-05-29T08:41:05;47177.91;;;-146.65;44.09
57094;BME280;42970;50.996;3.706;2023-05-29T08:43:32;47177.91;;;-146.65;45.25
57094;BME280;42970;50.996;3.706;2023-05-29T08:46:03;47179.91;;;-146.65;45.02
57094;BME280;42970;50.996;3.706;2023-05-29T08:48:29;47177.91;;;-146.65;44.69
57094;BME280;42970;50.996;3.706;2023-05-29T08:50:55;47181.91;;;-146.65;43.24
57094;BME280;42970;50.996;3.706;2023-05-29T08:53:21;47181.91;;;-146.65;42.98
57094;BME280;42970;50.996;3.706;2023-05-29T08:55:47;47179.91;;;-146.65;42.42
57094;BME280;42970;50.996;3.706;2023-05-29T08:58:16;47169.91;;;-146.65;43.19
57094;BME280;42970;50.996;3.706;2023-05-29T09:00:41;47175.91;;;-146.65;43.61
57094;BME280;42970;50.996;3.706;2023-05-29T09:03:07;47175.91;;;-146.65;44.21
57094;BME280;42970;50.996;3.706;2023-05-29T09:05:32;47177.91;;;-146.65;43.94
57094;BME280;42970;50.996;3.706;2023-05-29T09:07:57;47181.91;;;-146.65;42.61
57094;BME280;42970;50.996;3.706;2023-05-29T09:10:23;47177.91;;;-146.65;42.05
57094;BME280;42970;50.996;3.706;2023-05-29T09:12:50;47179.91;;;-146.65;42.08
57094;BME280;42970;50.996;3.706;2023-05-29T09:15:17;47177.91;;;-146.65;43.09
57094;BME280;42970;50.996;3.706;2023-05-29T09:17:53;47183.91;;;-146.65;42.11
57094;BME280;42970;50.996;3.706;2023-05-29T09:20:18;47181.91;;;-146.65;43.16
57094;BME280;42970;50.996;3.706;2023-05-29T09:23:06;47177.91;;;-146.65;41.64
57094;BME280;42970;50.996;3.706;2023-05-29T09:25:30;47179.91;;;-146.65;42.03
57094;BME280;42970;50.996;3.706;2023-05-29T09:28:00;47179.91;;;-146.65;42.32
57094;BME280;42970;50.996;3.706;2023-05-29T09:30:41;47177.91;;;-146.65;41.98
57094;BME280;42970;50.996;3.706;2023-05-29T09:33:08;47177.91;;;-146.65;42.31
57094;BME280;42970;50.996;3.706;2023-05-29T09:35:44;47179.91;;;-146.65;41.47
57094;BME280;42970;50.996;3.706;2023-05-29T09:38:11;47175.91;;;-146.65;41.02
57094;BME280;42970;50.996;3.706;2023-05-29T09:40:38;47181.91;;;-146.65;40.68
57094;BME280;42970;50.996;3.706;2023-05-29T09:43:09;47181.91;;;-146.65;40.67
57094;BME280;42970;50.996;3.706;2023-05-29T09:45:45;47179.91;;;-146.65;40.73
57094;BME280;42970;50.996;3.706;2023-05-29T09:48:23;47179.91;;;-146.65;40.92
57094;BME280;42970;50.996;3.706;2023-05-29T09:50:49;47177.91;;;-146.65;41.62
57094;BME280;42970;50.996;3.706;2023-05-29T09:53:22;47183.91;;;-146.65;40.96
57094;BME280;42970;50.996;3.706;2023-05-29T09:55:55;47177.91;;;-146.65;40.70
57094;BME280;42970;50.996;3.706;2023-05-29T09:58:21;47181.91;;;-146.65;40.34
57094;BME280;42970;50.996;3.706;2023-05-29T10:00:48;47179.91;;;-146.65;40.63
57094;BME280;42970;50.996;3.706;2023-05-29T10:03:15;47181.91;;;-146.65;41.64
57094;BME280;42970;50.996;3.706;2023-05-29T10:05:42;47181.91;;;-146.65;41.19
57094;BME280;42970;50.996;3.706;2023-05-29T10:08:12;47181.91;;;-146.65;40.47
57094;BME280;42970;50.996;3.706;2023-05-29T10:10:40;47179.91;;;-146.65;40.27
57094;BME280;42970;50.996;3.706;2023-05-29T10:13:12;47181.91;;;-146.65;40.23
57094;BME280;42970;50.996;3.706;2023-05-29T10:15:44;47181.91;;;-146.65;39.67
57094;BME280;42970;50.996;3.706;2023-05-29T10:18:20;47181.91;;;-146.65;39.96
57094;BME280;42970;50.996;3.706;2023-05-29T10:20:49;47181.91;;;-146.65;40.02
57094;BME280;42970;50.996;3.706;2023-05-29T10:23:20;47181.91;;;-146.65;39.22
57094;BME280;42970;50.996;3.706;2023-05-29T10:25:50;47183.91;;;-146.65;39.10
57094;BME280;42970;50.996;3.706;2023-05-29T10:28:16;47181.91;;;-146.65;38.35
57094;BME280;42970;50.996;3.706;2023-05-29T10:30:46;47181.91;;;-146.65;38.77
57094;BME280;42970;50.996;3.706;2023-05-29T10:33:31;47175.91;;;-146.65;39.26
57094;BME280;42970;50.996;3.706;2023-05-29T10:36:18;47175.91;;;-146.65;38.75
57094;BME280;42970;50.996;3.706;2023-05-29T10:38:45;47179.91;;;-146.65;38.57
57094;BME280;42970;50.996;3.706;2023-05-29T10:49:24;47177.91;;;-146.65;36.95
57094;BME280;42970;50.996;3.706;2023-05-29T10:51:51;47179.91;;;-146.65;36.12
57094;BME280;42970;50.996;3.706;2023-05-29T10:54:23;47185.91;;;-146.65;37.38
57094;BME280;42970;50.996;3.706;2023-05-29T10:56:57;47181.91;;;-146.65;36.39
57094;BME280;42970;50.996;3.706;2023-05-29T10:59:23;47179.91;;;-146.65;35.61
57094;BME280;42970;50.996;3.706;2023-05-29T11:01:55;47181.91;;;-146.65;36.91
57094;BME280;42970;50.996;3.706;2023-05-29T11:06:51;47181.91;;;-146.65;34.31
57094;BME280;42970;50.996;3.706;2023-05-29T11:09:26;47183.91;;;-146.65;33.60
57094;BME280;42970;50.996;3.706;2023-05-29T11:12:23;47179.91;;;-146.65;34.36
57094;BME280;42970;50.996;3.706;2023-05-29T11:15:06;47183.91;;;-146.65;34.13
57094;BME280;42970;50.996;3.706;2023-05-29T11:20:05;47185.91;;;-146.65;32.36
57094;BME280;42970;50.996;3.706;2023-05-29T11:23:00;47179.91;;;-146.65;31.91
57094;BME280;42970;50.996;3.706;2023-05-29T11:25:26;47181.91;;;-146.65;31.49
57094;BME280;42970;50.996;3.706;2023-05-29T11:27:52;47179.91;;;-146.65;34.51
57094;BME280;42970;50.996;3.706;2023-05-29T11:30:19;47181.91;;;-146.65;32.53
57094;BME280;42970;50.996;3.706;2023-05-29T11:32:45;47181.91;;;-146.65;32.73
57094;BME280;42970;50.996;3.706;2023-05-29T11:35:13;47179.91;;;-146.65;32.78
57094;BME280;42970;50.996;3.706;2023-05-29T11:37:40;47179.91;;;-146.65;32.76
57094;BME280;42970;50.996;3.706;2023-05-29T11:40:08;47181.91;;;-146.65;31.23
57094;BME280;42970;50.996;3.706;2023-05-29T11:42:35;47181.91;;;-146.65;31.95
57094;BME280;42970;50.996;3.706;2023-05-29T11:45:14;47179.91;;;-146.65;31.42
57094;BME280;42970;50.996;3.706;2023-05-29T11:47:58;47181.91;;;-146.65;33.91
57094;BME280;42970;50.996;3.706;2023-05-29T11:50:33;47181.91;;;-146.65;32.11
57094;BME280;42970;50.996;3.706;2023-05-29T11:53:02;47181.91;;;-146.65;31.46
57094;BME280;42970;50.996;3.706;2023-05-29T11:55:28;47181.91;;;-146.65;31.82
57094;BME280;42970;50.996;3.706;2023-05-29T11:57:59;47181.91;;;-146.65;32.49
57094;BME280;42970;50.996;3.706;2023-05-29T12:00:25;47183.91;;;-146.65;31.69
57094;BME280;42970;50.996;3.706;2023-05-29T12:02:51;47181.91;;;-146.65;30.50
57094;BME280;42970;50.996;3.706;2023-05-29T12:05:18;47179.91;;;-146.65;30.88
57094;BME280;42970;50.996;3.706;2023-05-29T12:08:01;47181.91;;;-146.65;30.53
57094;BME280;42970;50.996;3.706;2023-05-29T12:10:27;47185.91;;;-146.65;30.33
57094;BME280;42970;50.996;3.706;2023-05-29T12:12:55;47179.91;;;-146.65;30.30
57094;BME280;42970;50.996;3.706;2023-05-29T12:15:21;47181.91;;;-146.65;31.61
57094;BME280;42970;50.996;3.706;2023-05-29T12:17:51;47181.91;;;-146.65;31.63
57094;BME280;42970;50.996;3.706;2023-05-29T12:20:18;47179.91;;;-146.65;31.11
57094;BME280;42970;50.996;3.706;2023-05-29T12:22:44;47181.91;;;-146.65;31.18
57094;BME280;42970;50.996;3.706;2023-05-29T12:25:20;47185.91;;;-146.65;31.26
57094;BME280;42970;50.996;3.706;2023-05-29T12:27:47;47177.91;;;-146.65;31.48
57094;BME280;42970;50.996;3.706;2023-05-29T12:30:22;47183.91;;;-146.65;32.41
57094;BME280;42970;50.996;3.706;2023-05-29T12:32:49;47181.91;;;-146.65;31.93
57094;BME280;42970;50.996;3.706;2023-05-29T12:35:17;47181.91;;;-146.65;32.62
57094;BME280;42970;50.996;3.706;2023-05-29T12:37:48;47179.91;;;-146.65;30.62
57094;BME280;42970;50.996;3.706;2023-05-29T12:42:44;47177.91;;;-146.65;31.79
57094;BME280;42970;50.996;3.706;2023-05-29T12:45:09;47181.91;;;-146.65;31.15
57094;BME280;42970;50.996;3.706;2023-05-29T12:47:36;47181.91;;;-146.65;32.13
57094;BME280;42970;50.996;3.706;2023-05-29T12:50:21;47183.91;;;-146.65;30.76
57094;BME280;42970;50.996;3.706;2023-05-29T12:53:04;47185.91;;;-146.65;30.94
57094;BME280;42970;50.996;3.706;2023-05-29T12:55:35;47181.91;;;-146.65;30.87
57094;BME280;42970;50.996;3.706;2023-05-29T12:58:04;47183.91;;;-146.65;30.97
57094;BME280;42970;50.996;3.706;2023-05-29T13:00:33;47179.91;;;-146.65;31.04
57094;BME280;42970;50.996;3.706;2023-05-29T13:02:58;47179.91;;;-146.65;31.47
57094;BME280;42970;50.996;3.706;2023-05-29T13:05:24;47181.91;;;-146.65;32.47
57094;BME280;42970;50.996;3.706;2023-05-29T13:07:50;47179.91;;;-146.65;30.64